Time;durP1;ratioP1;P1;durP2;ratioP2;P2;SDS_P1;SDS_P2;PMS_P1;PMS_P2;Temp;Humidity;BMP_temperature;BMP_pressure;BME280_temperature;BME280_humidity;BME280_pressure;Samples;Min_cycle;Max_cycle;Signal;HPM_P1;HPM_P2
2022/05/23 03:03:03;;;;;;;0.67;0.50;;;19.40;63.80;;;;;;5021885;23;20588;-72
2022/05/23 03:05:30;;;;;;;0.70;0.50;;;19.30;62.70;;;;;;4974108;28;20422;-72
2022/05/23 03:07:57;;;;;;;0.70;0.60;;;19.10;62.90;;;;;;4974229;28;20450;-72
2022/05/23 03:10:24;;;;;;;0.60;0.53;;;19.10;63.20;;;;;;4974021;28;20446;-72
2022/05/23 03:12:50;;;;;;;0.70;0.60;;;19.20;62.70;;;;;;4973998;28;20485;-72
2022/05/23 03:15:17;;;;;;;0.63;0.50;;;19.30;63.20;;;;;;4974902;28;20489;-72
2022/05/23 03:17:44;;;;;;;0.60;0.50;;;19.40;63.10;;;;;;4974138;28;20450;-72
2022/05/23 03:20:13;;;;;;;0.70;0.60;;;19.40;62.80;;;;;;4973968;28;20449;-72
2022/05/23 03:28:09;;;;;;;0.70;0.70;;;19.10;64.30;;;;;;4973927;28;20410;-72
2022/05/23 03:30:36;;;;;;;0.70;0.60;;;19.10;64.50;;;;;;4973899;28;20446;-72
2022/05/23 03:33:04;;;;;;;0.70;0.60;;;19.20;64.30;;;;;;4973725;28;20481;-72
2022/05/23 03:35:33;;;;;;;0.70;0.60;;;19.20;64.30;;;;;;4973578;28;20910;-72
2022/05/23 03:38:00;;;;;;;0.70;0.60;;;19.20;64.30;;;;;;4973826;28;20446;-72
2022/05/23 03:40:27;;;;;;;0.60;0.53;;;19.20;62.80;;;;;;4973788;28;20446;-72
2022/05/23 03:42:54;;;;;;;0.70;0.60;;;19.20;63.50;;;;;;4973450;28;20965;-72
2022/05/23 03:45:21;;;;;;;0.70;0.60;;;19.40;62.90;;;;;;4974066;28;20454;-73
2022/05/23 03:47:49;;;;;;;0.60;0.50;;;19.50;62.70;;;;;;4973721;28;20457;-72
2022/05/23 03:50:16;;;;;;;0.60;0.60;;;19.50;62.80;;;;;;4973392;28;20454;-73
2022/05/23 03:52:44;;;;;;;0.70;0.60;;;19.60;62.20;;;;;;4973655;28;20488;-72
2022/05/23 03:55:11;;;;;;;0.63;0.60;;;19.50;62.10;;;;;;4973720;28;20537;-72
2022/05/23 03:57:37;;;;;;;0.70;0.60;;;19.30;62.50;;;;;;4974118;28;20446;-72
2022/05/23 04:00:06;;;;;;;0.67;0.57;;;19.10;63.00;;;;;;4973531;28;20942;-72
2022/05/23 04:02:33;;;;;;;0.70;0.70;;;19.00;63.70;;;;;;4973229;28;21001;-72
2022/05/23 04:05:00;;;;;;;0.60;0.50;;;18.80;64.20;;;;;;4973832;28;20442;-72
2022/05/23 04:07:27;;;;;;;0.90;0.70;;;18.50;65.00;;;;;;4973362;28;20933;-72
2022/05/23 04:09:55;;;;;;;0.67;0.60;;;18.50;65.30;;;;;;4973936;28;20473;-72
2022/05/23 04:12:22;;;;;;;0.70;0.70;;;18.60;64.80;;;;;;4973572;28;20874;-72
2022/05/23 04:14:48;;;;;;;0.70;0.60;;;18.70;64.80;;;;;;4973653;28;20520;-72
2022/05/23 04:17:15;;;;;;;0.90;0.70;;;18.80;64.40;;;;;;4974412;28;20504;-72
2022/05/23 04:19:42;;;;;;;0.70;0.60;;;18.90;64.00;;;;;;4977795;28;20508;-73
2022/05/23 04:22:08;;;;;;;0.70;0.60;;;18.80;64.20;;;;;;4977030;28;20473;-72
2022/05/23 04:24:35;;;;;;;0.70;0.63;;;18.60;65.20;;;;;;4977170;28;20454;-72
2022/05/23 04:27:04;;;;;;;0.93;0.60;;;18.60;65.60;;;;;;4976771;28;20918;-72
2022/05/23 04:29:30;;;;;;;0.80;0.60;;;18.60;66.00;;;;;;4976703;28;20945;-72
2022/05/23 04:31:57;;;;;;;0.70;0.60;;;18.60;66.80;;;;;;4977042;28;20473;-72
2022/05/23 04:37:08;;;;;;;0.80;0.70;;;18.80;67.20;;;;;;4977234;28;20901;-72
2022/05/23 04:39:34;;;;;;;0.80;0.70;;;18.90;67.70;;;;;;4977119;28;20508;-72
2022/05/23 04:42:03;;;;;;;0.90;0.83;;;19.00;68.50;;;;;;4976978;28;20521;-72
2022/05/23 04:44:30;;;;;;;0.80;0.80;;;19.20;68.10;;;;;;4976985;28;20485;-72
2022/05/23 04:49:42;;;;;;;0.80;0.80;;;19.40;71.50;;;;;;4976637;28;20549;-72
2022/05/23 04:52:09;;;;;;;0.70;0.70;;;19.40;73.50;;;;;;4976377;28;20549;-72
2022/05/23 04:54:37;;;;;;;1.40;0.90;;;19.40;74.20;;;;;;4976551;28;20446;-72
2022/05/23 04:57:06;;;;;;;0.87;0.80;;;19.40;74.80;;;;;;4976987;28;20458;-72
2022/05/23 04:59:33;;;;;;;1.03;0.80;;;19.40;74.70;;;;;;4976476;28;20454;-72
2022/05/23 05:02:01;;;;;;;0.93;0.83;;;19.40;74.50;;;;;;4976072;28;20486;-72
2022/05/23 05:04:28;;;;;;;0.80;0.70;;;19.30;74.70;;;;;;4976304;28;20475;-72
2022/05/23 05:06:54;;;;;;;0.90;0.70;;;19.20;75.30;;;;;;4976311;28;20450;-72
2022/05/23 05:09:21;;;;;;;0.80;0.80;;;19.20;75.90;;;;;;4975969;28;20857;-72
2022/05/23 05:11:48;;;;;;;0.70;0.70;;;19.10;76.20;;;;;;4976164;28;20817;-72
2022/05/23 05:14:17;;;;;;;1.10;0.67;;;19.10;76.40;;;;;;4976154;28;20572;-72
2022/05/23 05:16:43;;;;;;;0.80;0.70;;;19.10;76.50;;;;;;4976143;28;20504;-72
2022/05/23 05:19:10;;;;;;;0.70;0.70;;;19.10;76.70;;;;;;4976008;28;20454;-72
2022/05/23 05:21:37;;;;;;;0.80;0.80;;;19.10;77.40;;;;;;4975951;28;20572;-72
2022/05/23 05:24:05;;;;;;;0.80;0.70;;;19.20;77.20;;;;;;4976008;28;20532;-72
2022/05/23 05:26:32;;;;;;;0.90;0.80;;;19.20;77.10;;;;;;4976002;28;20811;-72
2022/05/23 05:28:58;;;;;;;0.80;0.80;;;19.20;76.90;;;;;;4975909;28;20451;-72
2022/05/23 05:31:31;;;;;;;0.83;0.80;;;19.20;76.90;;;;;;4975930;28;20885;-72
2022/05/23 05:34:05;;;;;;;1.20;1.03;;;19.20;76.70;;;;;;4975762;28;20521;-72
2022/05/23 05:36:36;;;;;;;1.00;1.00;;;18.60;77.30;;;;;;4975879;28;20804;-72
2022/05/23 05:39:05;;;;;;;0.77;0.73;;;18.10;78.70;;;;;;4975785;28;20434;-72
2022/05/23 05:41:36;;;;;;;1.17;1.00;;;17.90;80.00;;;;;;4975621;28;20517;-72
2022/05/23 05:44:07;;;;;;;1.30;1.20;;;17.80;79.80;;;;;;4975615;28;20423;-72
2022/05/23 05:46:39;;;;;;;1.20;0.90;;;17.90;80.20;;;;;;4976201;28;20430;-72
2022/05/23 05:49:10;;;;;;;0.77;0.77;;;17.70;81.20;;;;;;4975566;28;20446;-72
2022/05/23 05:51:38;;;;;;;1.37;0.80;;;17.70;80.90;;;;;;4975235;28;20544;-72
2022/05/23 05:54:06;;;;;;;0.80;0.70;;;17.50;81.40;;;;;;4974928;28;20988;-72
2022/05/23 05:56:43;;;;;;;0.70;0.70;;;17.40;82.00;;;;;;4975551;28;20452;-72
2022/05/23 05:59:10;;;;;;;0.80;0.70;;;17.40;82.40;;;;;;4974993;28;20815;-72
2022/05/23 06:01:40;;;;;;;0.90;0.90;;;17.20;83.10;;;;;;4974841;28;20997;-71
2022/05/23 06:04:07;;;;;;;0.93;0.80;;;17.10;84.30;;;;;;4974958;28;20446;-72
2022/05/23 06:12:02;;;;;;;1.00;1.00;;;17.40;85.00;;;;;;4974926;28;20537;-72
2022/05/23 06:14:28;;;;;;;0.70;0.70;;;17.50;84.00;;;;;;4974777;28;20490;-72
2022/05/23 06:16:56;;;;;;;0.70;0.70;;;17.40;84.10;;;;;;4976085;28;20942;-72
2022/05/23 06:19:23;;;;;;;0.90;0.80;;;17.20;84.70;;;;;;4974837;28;20453;-72
2022/05/23 06:21:50;;;;;;;0.90;0.70;;;17.10;85.00;;;;;;4974729;28;20528;-72
2022/05/23 06:24:16;;;;;;;0.83;0.70;;;17.10;85.00;;;;;;4975179;28;20454;-72
2022/05/23 06:26:44;;;;;;;0.80;0.80;;;16.90;85.90;;;;;;4974744;28;20450;-72
2022/05/23 06:29:11;;;;;;;0.70;0.70;;;16.90;85.70;;;;;;4974750;28;20450;-72
2022/05/23 06:31:37;;;;;;;0.80;0.70;;;16.90;86.00;;;;;;4974484;28;20877;-72
2022/05/23 06:34:05;;;;;;;0.70;0.70;;;17.20;86.00;;;;;;4974546;28;20897;-72
2022/05/23 06:36:32;;;;;;;1.00;0.90;;;17.30;85.80;;;;;;4974287;28;20458;-72
2022/05/23 06:38:59;;;;;;;0.70;0.67;;;17.50;84.60;;;;;;4974632;28;20450;-72
2022/05/23 06:41:27;;;;;;;0.97;0.70;;;17.50;84.00;;;;;;4973787;28;20957;-72
2022/05/23 06:43:53;;;;;;;0.87;0.70;;;17.40;84.30;;;;;;4974506;28;20459;-72
2022/05/23 06:46:20;;;;;;;1.00;0.80;;;17.20;84.80;;;;;;4974488;28;20458;-72
2022/05/23 06:48:47;;;;;;;0.70;0.70;;;17.20;84.70;;;;;;4974509;28;20445;-72
2022/05/23 06:51:15;;;;;;;0.70;0.67;;;17.30;85.00;;;;;;4974458;28;20470;-72
2022/05/23 06:53:42;;;;;;;1.03;0.87;;;17.40;83.20;;;;;;4974297;28;20553;-71
2022/05/23 06:56:09;;;;;;;0.87;0.87;;;17.30;85.00;;;;;;4974544;28;20485;-72
2022/05/23 06:58:35;;;;;;;0.97;0.80;;;17.40;83.90;;;;;;4974674;28;20450;-72
2022/05/23 07:01:02;;;;;;;0.70;0.70;;;17.50;83.10;;;;;;4974424;28;20494;-72
2022/05/23 07:03:29;;;;;;;0.80;0.70;;;17.50;82.50;;;;;;4974268;28;20445;-72
2022/05/23 07:14:10;;;;;;;0.70;0.60;;;18.00;81.70;;;;;;4973901;28;20562;-72
2022/05/23 07:16:37;;;;;;;0.90;0.80;;;18.00;80.20;;;;;;4974891;28;20450;-72
2022/05/23 07:19:04;;;;;;;0.70;0.70;;;18.40;79.60;;;;;;4974081;28;20454;-71
2022/05/23 07:21:32;;;;;;;0.70;0.70;;;18.30;78.80;;;;;;4974049;28;20469;-72
2022/05/23 07:24:00;;;;;;;0.70;0.60;;;18.30;79.50;;;;;;4974244;28;20802;-72
2022/05/23 07:26:27;;;;;;;0.70;0.70;;;18.50;78.80;;;;;;4973933;28;20570;-71
2022/05/23 07:28:54;;;;;;;0.73;0.60;;;18.70;78.50;;;;;;4974035;28;20500;-72
2022/05/23 07:31:21;;;;;;;0.67;0.60;;;18.80;79.00;;;;;;4973928;28;20500;-72
2022/05/23 07:33:48;;;;;;;0.70;0.60;;;19.00;78.70;;;;;;4973880;28;20481;-72
2022/05/23 07:36:15;;;;;;;0.83;0.70;;;18.80;79.40;;;;;;4973977;28;20454;-72
2022/05/23 07:38:43;;;;;;;0.97;0.87;;;18.90;79.20;;;;;;4973956;28;20456;-71
2022/05/23 07:41:12;;;;;;;0.70;0.70;;;19.00;78.90;;;;;;4973874;28;20592;-72
2022/05/23 07:43:41;;;;;;;0.70;0.70;;;19.00;79.20;;;;;;4973888;28;20457;-72
2022/05/23 07:46:12;;;;;;;0.70;0.70;;;18.80;78.60;;;;;;4973650;28;20921;-72
2022/05/23 07:48:41;;;;;;;0.70;0.70;;;18.70;78.90;;;;;;4973823;28;20776;-72
2022/05/23 07:51:09;;;;;;;0.80;0.80;;;18.80;79.20;;;;;;4973741;28;20593;-71
2022/05/23 08:01:50;;;;;;;0.73;0.73;;;19.80;76.70;;;;;;4977474;28;20477;-72
2022/05/23 08:04:18;;;;;;;0.70;0.60;;;20.00;76.80;;;;;;4977381;28;20445;-72
2022/05/23 08:06:44;;;;;;;0.73;0.73;;;20.30;77.10;;;;;;4977288;28;20468;-71
2022/05/23 08:09:11;;;;;;;0.70;0.70;;;20.60;76.10;;;;;;4977482;28;20505;-72
2022/05/23 08:11:42;;;;;;;0.70;0.70;;;20.80;74.20;;;;;;4977302;28;20497;-72
2022/05/23 08:14:08;;;;;;;0.70;0.60;;;21.10;73.90;;;;;;4977264;28;20500;-72
2022/05/23 08:16:36;;;;;;;0.83;0.77;;;21.40;73.40;;;;;;4977213;28;20457;-72
2022/05/23 08:19:03;;;;;;;0.70;0.60;;;21.50;72.80;;;;;;4977221;28;20450;-71
2022/05/23 08:21:31;;;;;;;0.80;0.70;;;21.60;72.90;;;;;;4977085;28;20505;-71
2022/05/23 08:23:57;;;;;;;0.70;0.70;;;21.50;72.90;;;;;;4977178;28;20508;-71
2022/05/23 08:26:25;;;;;;;0.70;0.60;;;21.50;71.70;;;;;;4977067;28;20450;-71
2022/05/23 08:28:53;;;;;;;0.70;0.60;;;21.30;73.70;;;;;;4976860;28;20921;-71
2022/05/23 08:31:20;;;;;;;0.70;0.60;;;21.10;74.40;;;;;;4977154;28;20844;-70
2022/05/23 08:33:47;;;;;;;0.70;0.60;;;21.10;74.40;;;;;;4976948;28;20532;-71
2022/05/23 08:36:14;;;;;;;1.33;0.60;;;20.90;72.30;;;;;;4977097;28;20454;-71
2022/05/23 08:38:40;;;;;;;0.70;0.60;;;20.70;74.00;;;;;;4977035;28;20500;-71
2022/05/23 08:41:21;;;;;;;0.70;0.67;;;20.70;74.70;;;;;;4976874;28;20469;-71
2022/05/23 08:43:58;;;;;;;0.60;0.60;;;20.70;73.90;;;;;;4976893;28;20773;-71
2022/05/23 08:46:31;;;;;;;0.70;0.60;;;20.80;74.10;;;;;;4976475;28;20933;-70
2022/05/23 08:49:05;;;;;;;0.70;0.60;;;20.70;74.40;;;;;;4977362;28;20787;-71
2022/05/23 08:51:38;;;;;;;0.60;0.60;;;20.70;75.20;;;;;;4976866;28;20513;-70
2022/05/23 08:54:17;;;;;;;0.70;0.60;;;20.80;74.90;;;;;;4976596;28;20502;-70
2022/05/23 08:56:48;;;;;;;0.83;0.80;;;21.10;74.50;;;;;;4976358;28;20566;-70
2022/05/23 08:59:25;;;;;;;0.70;0.60;;;20.90;74.10;;;;;;4976691;28;20434;-71
2022/05/23 09:01:55;;;;;;;0.70;0.67;;;20.70;76.30;;;;;;4976255;28;20493;-71
2022/05/23 09:04:34;;;;;;;0.73;0.73;;;20.80;76.50;;;;;;4976056;28;20434;-70
2022/05/23 09:07:03;;;;;;;0.80;0.70;;;20.80;75.30;;;;;;4977081;28;20450;-70
2022/05/23 09:09:32;;;;;;;0.90;0.70;;;20.70;75.90;;;;;;4977035;28;20490;-70
2022/05/23 09:12:06;;;;;;;0.70;0.70;;;20.50;77.10;;;;;;4976241;28;20532;-70
2022/05/23 09:14:34;;;;;;;0.70;0.60;;;20.70;77.10;;;;;;4977066;28;20889;-71
2022/05/23 09:17:01;;;;;;;0.70;0.70;;;20.60;77.70;;;;;;4976515;28;20513;-72
2022/05/23 09:19:33;;;;;;;0.80;0.70;;;20.60;78.30;;;;;;4976121;28;20504;-71
2022/05/23 09:22:14;;;;;;;0.80;0.70;;;20.70;77.90;;;;;;4976547;28;20477;-72
2022/05/23 09:24:43;;;;;;;0.70;0.60;;;20.90;78.20;;;;;;4976048;28;20426;-72
2022/05/23 09:27:16;;;;;;;0.70;0.60;;;21.00;77.00;;;;;;4975904;28;20446;-72
2022/05/23 09:29:54;;;;;;;0.70;0.60;;;20.90;77.10;;;;;;4975695;28;20926;-72
2022/05/23 09:32:24;;;;;;;0.70;0.63;;;21.00;77.80;;;;;;4975822;28;20484;-72
2022/05/23 09:34:55;;;;;;;0.70;0.60;;;21.00;77.90;;;;;;4975479;28;21031;-72
2022/05/23 09:37:28;;;;;;;0.70;0.63;;;21.00;78.70;;;;;;4975506;28;20948;-72
2022/05/23 09:39:57;;;;;;;0.70;0.60;;;21.00;78.70;;;;;;4975696;28;20923;-73
2022/05/23 09:48:14;;;;;;;0.70;0.67;;;21.50;77.10;;;;;;4975398;28;20414;-71
2022/05/23 09:50:43;;;;;;;0.70;0.67;;;21.60;77.10;;;;;;4975330;28;20454;-72
2022/05/23 09:53:26;;;;;;;0.70;0.63;;;21.70;78.60;;;;;;4975474;28;20478;-71
2022/05/23 09:55:54;;;;;;;0.70;0.60;;;21.90;77.30;;;;;;4975595;28;20478;-72
2022/05/23 09:58:25;;;;;;;0.70;0.70;;;21.80;76.30;;;;;;4975091;28;20578;-73
2022/05/23 10:01:24;;;;;;;0.70;0.70;;;21.90;76.90;;;;;;4975079;28;20470;-72
2022/05/23 10:03:51;;;;;;;0.60;0.60;;;22.10;78.00;;;;;;4975052;28;20461;-71
2022/05/23 10:06:19;;;;;;;1.30;0.60;;;22.30;77.50;;;;;;4975097;28;20458;-71
2022/05/23 10:08:48;;;;;;;0.60;0.60;;;22.60;75.90;;;;;;4975129;28;20863;-72
2022/05/23 10:11:22;;;;;;;1.93;0.70;;;22.90;74.60;;;;;;4975064;28;20568;-72
2022/05/23 10:13:54;;;;;;;0.70;0.70;;;23.00;74.10;;;;;;4975498;28;20445;-72
2022/05/23 10:16:27;;;;;;;0.70;0.70;;;23.00;73.80;;;;;;4974454;28;20859;-71
2022/05/23 10:19:00;;;;;;;0.70;0.70;;;22.80;73.00;;;;;;4975238;28;20437;-71
2022/05/23 10:21:31;;;;;;;0.70;0.60;;;22.70;73.60;;;;;;4975490;28;20844;-71
2022/05/23 10:24:04;;;;;;;0.67;0.67;;;22.70;73.70;;;;;;4974964;28;20438;-71
2022/05/23 10:26:34;;;;;;;0.70;0.60;;;22.80;73.90;;;;;;4975622;28;20453;-72
2022/05/23 10:29:08;;;;;;;1.00;0.60;;;22.90;73.60;;;;;;4974845;28;20460;-72
2022/05/23 10:31:43;;;;;;;0.70;0.60;;;23.00;73.90;;;;;;4974729;28;20515;-72
2022/05/23 10:34:17;;;;;;;0.70;0.60;;;23.00;74.20;;;;;;4974652;28;20496;-72
2022/05/23 10:36:49;;;;;;;0.70;0.60;;;22.90;74.20;;;;;;4974472;28;20805;-71
2022/05/23 10:42:15;;;;;;;0.77;0.73;;;22.70;74.60;;;;;;4974322;28;20445;-71
2022/05/23 10:45:08;;;;;;;0.60;0.60;;;22.70;74.20;;;;;;4974697;28;20440;-72
2022/05/23 10:47:50;;;;;;;0.63;0.60;;;22.60;75.00;;;;;;4974071;28;20450;-71
2022/05/23 10:50:22;;;;;;;0.80;0.70;;;22.50;75.00;;;;;;4974339;28;20426;-71
2022/05/23 10:52:58;;;;;;;0.70;0.60;;;22.50;75.30;;;;;;4974449;28;20489;-70
2022/05/23 10:55:33;;;;;;;0.70;0.60;;;22.30;75.10;;;;;;4974778;28;20506;-72
2022/05/23 10:58:08;;;;;;;0.70;0.60;;;22.30;76.10;;;;;;4974435;28;20465;-72
2022/05/23 11:00:42;;;;;;;0.80;0.70;;;22.20;75.80;;;;;;4974370;28;20442;-72
2022/05/23 11:03:16;;;;;;;0.70;0.67;;;22.00;75.90;;;;;;4974389;28;20434;-72
2022/05/23 11:05:53;;;;;;;0.83;0.83;;;21.70;76.20;;;;;;4975049;28;20425;-71
2022/05/23 11:08:36;;;;;;;0.70;0.70;;;21.70;76.40;;;;;;4974982;28;20434;-72
2022/05/23 11:11:09;;;;;;;1.07;0.80;;;21.80;76.30;;;;;;4975186;28;20466;-72
2022/05/23 11:13:49;;;;;;;0.70;0.60;;;21.50;77.30;;;;;;4975326;28;20434;-73
2022/05/23 11:16:19;;;;;;;0.80;0.80;;;21.40;78.50;;;;;;4975136;28;20469;-72
2022/05/23 11:19:30;;;;;;;0.77;0.77;;;21.10;80.50;;;;;;4974892;28;20442;-72
2022/05/23 11:22:04;;;;;;;0.80;0.80;;;20.80;81.90;;;;;;4934273;29;20531;-72
2022/05/23 11:24:37;;;;;;;1.00;0.90;;;20.40;83.80;;;;;;4970887;28;20458;-73
2022/05/23 11:35:47;;;;;;;1.37;1.00;;;19.40;89.10;;;;;;4980841;28;20516;-74
2022/05/23 11:38:15;;;;;;;0.93;0.90;;;19.40;89.70;;;;;;4981987;28;20443;-74
2022/05/23 11:41:08;;;;;;;1.00;0.70;;;19.30;88.90;;;;;;4981528;28;20484;-73
2022/05/23 11:43:35;;;;;;;0.80;0.80;;;19.30;87.70;;;;;;4972052;28;20465;-73
2022/05/23 11:46:04;;;;;;;0.83;0.77;;;19.00;87.20;;;;;;4981088;28;20442;-74
2022/05/23 11:48:48;;;;;;;2.60;1.10;;;19.00;87.90;;;;;;4981353;28;20999;-71
2022/05/23 11:51:36;;;;;;;1.47;0.90;;;18.90;87.60;;;;;;4981667;28;21031;-70
2022/05/23 11:54:10;;;;;;;1.40;0.80;;;18.60;85.80;;;;;;4980654;28;20918;-70
2022/05/23 11:57:10;;;;;;;1.47;0.83;;;18.50;87.10;;;;;;4980757;28;20469;-70
2022/05/23 12:00:00;;;;;;;0.77;0.70;;;18.40;88.10;;;;;;4980844;28;20536;-72
2022/05/23 12:02:28;;;;;;;1.20;0.70;;;18.40;87.40;;;;;;4980459;28;20559;-73
2022/05/23 12:05:31;;;;;;;0.90;0.70;;;18.40;88.10;;;;;;4981006;28;20477;-72
2022/05/23 12:08:29;;;;;;;1.47;1.00;;;18.60;87.40;;;;;;4980220;28;20545;-73
2022/05/23 12:11:01;;;;;;;1.63;0.80;;;18.60;88.40;;;;;;4980634;28;20512;-71
2022/05/23 12:13:58;;;;;;;0.70;0.60;;;18.80;88.30;;;;;;4980598;28;20453;-70
2022/05/23 12:17:05;;;;;;;0.80;0.80;;;18.80;87.60;;;;;;4979942;28;20465;-70
2022/05/23 12:19:53;;;;;;;1.23;1.00;;;19.00;87.70;;;;;;4980273;28;20461;-70
2022/05/23 12:22:25;;;;;;;0.80;0.80;;;19.10;87.30;;;;;;4980061;28;20466;-71
2022/05/23 12:25:24;;;;;;;1.00;0.80;;;19.00;86.00;;;;;;4980354;28;20417;-70
2022/05/23 12:28:17;;;;;;;1.10;1.00;;;19.10;86.50;;;;;;4979923;28;20536;-71
2022/05/23 12:31:04;;;;;;;0.70;0.67;;;19.40;86.10;;;;;;4979838;28;20509;-71
2022/05/23 12:33:32;;;;;;;0.70;0.70;;;19.60;86.00;;;;;;4979819;28;20488;-70
2022/05/23 12:36:06;;;;;;;0.80;0.80;;;19.70;84.90;;;;;;4979891;28;20485;-71
2022/05/23 12:38:53;;;;;;;1.17;0.80;;;19.60;84.70;;;;;;4977315;28;20425;-70
2022/05/23 12:41:51;;;;;;;0.70;0.70;;;19.70;85.40;;;;;;4976740;28;20469;-71
2022/05/23 12:44:45;;;;;;;1.50;0.90;;;19.80;85.50;;;;;;4976305;28;20457;-71
2022/05/23 12:47:22;;;;;;;0.77;0.70;;;19.80;86.90;;;;;;4976380;28;20901;-70
2022/05/23 12:49:56;;;;;;;0.83;0.70;;;20.10;86.00;;;;;;4976621;28;20566;-71
2022/05/23 12:52:37;;;;;;;0.70;0.70;;;20.30;84.60;;;;;;4976472;28;20471;-70
2022/05/23 12:55:22;;;;;;;0.70;0.60;;;20.50;85.20;;;;;;4976459;28;20469;-70
2022/05/23 12:58:13;;;;;;;0.80;0.60;;;20.70;83.40;;;;;;4976479;28;20434;-70
2022/05/23 13:00:45;;;;;;;1.33;0.80;;;20.20;84.40;;;;;;4975999;28;20911;-71
2022/05/23 13:03:27;;;;;;;0.80;0.70;;;19.80;85.70;;;;;;4976961;28;20438;-71
2022/05/23 13:05:58;;;;;;;0.80;0.80;;;19.80;86.30;;;;;;4976786;28;20442;-71
2022/05/23 13:08:29;;;;;;;0.80;0.70;;;19.80;86.40;;;;;;4976330;28;20485;-70
2022/05/23 13:11:00;;;;;;;0.70;0.70;;;19.90;85.80;;;;;;4976694;28;20581;-71
2022/05/23 13:13:34;;;;;;;0.70;0.70;;;20.00;86.10;;;;;;4976321;28;20470;-70
2022/05/23 13:16:16;;;;;;;0.70;0.70;;;20.10;86.40;;;;;;4976029;28;20623;-70
2022/05/23 13:24:14;;;;;;;1.13;0.80;;;21.00;85.30;;;;;;4976089;28;20442;-71
2022/05/23 13:26:40;;;;;;;0.80;0.80;;;21.10;83.10;;;;;;4976553;28;20453;-70
2022/05/23 13:29:13;;;;;;;1.00;0.80;;;21.10;83.50;;;;;;4975900;28;20450;-71
2022/05/23 13:31:39;;;;;;;0.77;0.70;;;21.20;84.70;;;;;;4976259;28;20478;-71
2022/05/23 13:34:08;;;;;;;1.37;0.80;;;21.40;81.90;;;;;;4975745;28;20521;-70
2022/05/23 13:36:42;;;;;;;0.80;0.70;;;21.40;83.30;;;;;;4975954;28;20486;-71
2022/05/23 13:39:14;;;;;;;0.80;0.70;;;21.80;82.30;;;;;;4976954;28;20438;-71
2022/05/23 13:41:41;;;;;;;0.80;0.70;;;22.10;81.70;;;;;;4975544;28;20532;-71
2022/05/23 13:44:20;;;;;;;1.00;0.83;;;22.30;82.20;;;;;;4975807;28;20453;-71
2022/05/23 13:46:48;;;;;;;0.70;0.70;;;22.50;79.30;;;;;;4975066;28;20900;-71
2022/05/23 13:49:20;;;;;;;1.07;0.80;;;22.70;79.10;;;;;;4974435;28;20451;-72
2022/05/23 13:51:51;;;;;;;0.70;0.63;;;22.90;79.00;;;;;;4974667;28;20565;-71
2022/05/23 13:54:22;;;;;;;0.70;0.63;;;22.90;77.30;;;;;;4975064;28;20430;-72
2022/05/23 13:56:52;;;;;;;0.70;0.70;;;23.00;76.60;;;;;;4975185;28;20477;-71
2022/05/23 13:59:23;;;;;;;0.70;0.67;;;23.00;78.00;;;;;;4975227;28;20474;-70
2022/05/23 14:01:56;;;;;;;1.23;0.70;;;23.10;75.80;;;;;;4974989;28;20477;-71
2022/05/23 14:04:27;;;;;;;0.70;0.70;;;23.20;78.40;;;;;;4975160;28;20438;-71
2022/05/23 14:07:00;;;;;;;0.70;0.60;;;23.30;75.40;;;;;;4975079;28;20426;-73
2022/05/23 14:09:27;;;;;;;0.80;0.67;;;23.30;75.30;;;;;;4974917;28;20430;-71
2022/05/23 14:11:56;;;;;;;0.80;0.70;;;23.50;73.50;;;;;;4975276;28;20469;-72
2022/05/23 14:14:29;;;;;;;0.70;0.60;;;23.70;72.90;;;;;;4974734;28;20925;-72
2022/05/23 14:17:01;;;;;;;0.70;0.60;;;23.60;72.20;;;;;;4974843;28;20566;-72
2022/05/23 14:19:30;;;;;;;0.90;0.80;;;23.70;73.10;;;;;;4974973;28;20434;-70
2022/05/23 14:22:09;;;;;;;0.80;0.80;;;23.90;73.10;;;;;;4974776;28;20872;-71
2022/05/23 14:24:40;;;;;;;0.70;0.70;;;24.10;73.30;;;;;;4974523;28;20786;-71
2022/05/23 14:27:22;;;;;;;0.83;0.70;;;24.40;74.10;;;;;;4975577;28;20518;-71
2022/05/23 14:30:29;;;;;;;0.70;0.60;;;24.80;72.40;;;;;;4975364;28;20478;-71
2022/05/23 14:33:00;;;;;;;0.90;0.60;;;25.10;69.30;;;;;;4974850;28;20449;-71
2022/05/23 14:35:32;;;;;;;0.70;0.60;;;25.00;69.10;;;;;;4974908;28;20470;-71
2022/05/23 14:37:59;;;;;;;0.70;0.70;;;25.20;69.40;;;;;;4974592;28;20489;-71
2022/05/23 14:40:33;;;;;;;0.70;0.60;;;25.40;69.00;;;;;;4974520;28;20505;-72
2022/05/23 14:43:00;;;;;;;0.80;0.60;;;25.50;69.20;;;;;;4974443;28;20442;-70
2022/05/23 14:45:29;;;;;;;0.80;0.70;;;25.40;68.60;;;;;;4974479;28;20450;-71
2022/05/23 14:48:00;;;;;;;0.80;0.70;;;25.20;66.70;;;;;;4974375;28;20445;-70
2022/05/23 14:50:32;;;;;;;1.00;0.70;;;25.00;68.00;;;;;;4974528;28;20438;-72
2022/05/23 14:55:46;;;;;;;0.70;0.70;;;24.50;69.50;;;;;;4974305;28;20900;-71
2022/05/23 15:01:02;;;;;;;0.70;0.70;;;24.10;69.90;;;;;;4974040;28;20468;-71
2022/05/23 15:03:39;;;;;;;0.70;0.60;;;24.10;71.00;;;;;;4974235;28;20521;-71
2022/05/23 15:06:06;;;;;;;0.80;0.80;;;23.80;72.40;;;;;;4974146;28;20442;-70
2022/05/23 15:08:33;;;;;;;0.70;0.60;;;23.70;72.40;;;;;;4974248;28;20460;-71
2022/05/23 15:11:00;;;;;;;0.70;0.70;;;23.70;73.10;;;;;;4974104;28;20532;-71
2022/05/23 15:13:29;;;;;;;0.90;0.80;;;23.70;72.60;;;;;;4973828;28;20454;-70
2022/05/23 15:16:02;;;;;;;0.90;0.60;;;23.70;73.10;;;;;;4975215;28;20478;-70
2022/05/23 15:18:31;;;;;;;1.10;0.60;;;23.40;73.10;;;;;;4974048;28;20438;-71
2022/05/23 15:20:58;;;;;;;0.70;0.70;;;23.30;73.40;;;;;;4973946;28;20501;-71
2022/05/23 15:23:26;;;;;;;0.80;0.70;;;23.30;73.40;;;;;;4974044;28;20465;-71
2022/05/23 15:25:53;;;;;;;0.70;0.70;;;23.30;73.30;;;;;;4973994;28;20496;-71
2022/05/23 15:28:20;;;;;;;1.00;0.80;;;23.20;72.70;;;;;;4973961;28;20450;-71
2022/05/23 15:30:48;;;;;;;0.70;0.70;;;23.20;72.70;;;;;;4973889;28;20477;-71
2022/05/23 15:33:15;;;;;;;0.70;0.70;;;23.00;73.20;;;;;;4973814;28;20449;-71
2022/05/23 15:35:43;;;;;;;0.77;0.73;;;22.90;73.40;;;;;;4974162;28;20588;-70
2022/05/23 15:38:11;;;;;;;0.80;0.70;;;22.90;73.80;;;;;;4974036;28;20501;-70
2022/05/23 15:40:38;;;;;;;0.80;0.77;;;23.10;73.70;;;;;;4973978;28;20520;-71
2022/05/23 15:43:05;;;;;;;1.03;0.73;;;23.00;73.70;;;;;;4973886;28;20446;-71
2022/05/23 15:45:34;;;;;;;1.40;0.80;;;22.90;74.20;;;;;;4973825;28;20461;-71
2022/05/23 15:48:05;;;;;;;0.87;0.87;;;22.80;74.80;;;;;;4973877;28;20461;-71
2022/05/23 15:50:32;;;;;;;0.70;0.70;;;22.80;74.90;;;;;;4973795;28;20523;-70
2022/05/23 15:53:00;;;;;;;0.80;0.80;;;22.70;75.20;;;;;;4973844;28;20467;-71
2022/05/23 15:55:29;;;;;;;0.80;0.80;;;22.70;75.00;;;;;;4973653;28;20454;-71
2022/05/23 15:57:57;;;;;;;0.80;0.70;;;22.70;75.60;;;;;;4973467;28;21020;-70
2022/05/23 16:00:27;;;;;;;0.80;0.80;;;22.80;75.60;;;;;;4973646;28;20468;-72
2022/05/23 16:02:55;;;;;;;0.70;0.70;;;22.70;75.50;;;;;;4973404;28;20545;-71
2022/05/23 16:05:24;;;;;;;0.80;0.70;;;22.80;75.50;;;;;;4973622;28;20559;-70
2022/05/23 16:07:51;;;;;;;0.73;0.73;;;22.90;75.40;;;;;;4973695;28;20442;-70
2022/05/23 16:10:19;;;;;;;1.00;0.83;;;23.10;75.30;;;;;;4973724;28;20508;-71
2022/05/23 16:12:52;;;;;;;0.70;0.70;;;23.20;74.60;;;;;;4974045;28;20470;-72
2022/05/23 16:15:21;;;;;;;1.10;0.80;;;23.10;75.00;;;;;;4977982;28;20438;-70
2022/05/23 16:17:51;;;;;;;0.80;0.80;;;23.20;74.40;;;;;;4978078;28;20491;-70
2022/05/23 16:20:20;;;;;;;0.70;0.60;;;23.10;74.10;;;;;;4977649;28;20989;-72
2022/05/23 16:22:49;;;;;;;0.80;0.80;;;22.90;73.70;;;;;;4977761;28;20469;-71
2022/05/23 16:25:16;;;;;;;0.70;0.70;;;22.60;74.60;;;;;;4977650;28;20516;-71
2022/05/23 16:27:44;;;;;;;0.80;0.80;;;22.40;75.30;;;;;;4977723;28;20454;-70
2022/05/23 16:30:14;;;;;;;0.97;0.80;;;22.30;76.20;;;;;;4977799;28;20568;-72
2022/05/23 16:38:09;;;;;;;0.90;0.70;;;22.30;76.70;;;;;;4977287;28;20440;-72
2022/05/23 16:40:36;;;;;;;0.80;0.80;;;22.10;76.90;;;;;;4977446;28;20513;-72
2022/05/23 16:43:04;;;;;;;0.70;0.70;;;22.10;76.80;;;;;;4977196;28;20829;-72
2022/05/23 16:45:31;;;;;;;0.70;0.70;;;22.10;76.60;;;;;;4977560;28;20497;-71
2022/05/23 16:47:58;;;;;;;0.80;0.80;;;22.10;76.10;;;;;;4977166;28;20956;-72
2022/05/23 16:50:24;;;;;;;0.70;0.70;;;22.10;76.80;;;;;;4976950;28;20878;-73
2022/05/23 16:52:52;;;;;;;0.77;0.77;;;22.00;77.10;;;;;;4977487;28;20457;-70
2022/05/23 16:55:18;;;;;;;1.17;0.80;;;21.90;77.70;;;;;;4977491;28;20510;-72
2022/05/23 16:57:45;;;;;;;1.10;0.80;;;21.70;78.60;;;;;;4976974;28;21085;-72
2022/05/23 17:00:14;;;;;;;0.83;0.80;;;21.90;78.30;;;;;;4977095;28;20461;-72
2022/05/23 17:02:41;;;;;;;0.73;0.73;;;22.00;77.60;;;;;;4976766;28;20893;-71
2022/05/23 17:05:08;;;;;;;0.70;0.70;;;22.10;77.40;;;;;;4976684;28;20872;-71
2022/05/23 17:07:35;;;;;;;0.80;0.70;;;21.80;77.30;;;;;;4976802;28;21004;-71
2022/05/23 17:10:02;;;;;;;0.87;0.73;;;21.50;78.00;;;;;;4977177;28;20786;-71
2022/05/23 17:12:28;;;;;;;0.80;0.70;;;21.70;77.80;;;;;;4977035;28;20478;-71
2022/05/23 17:14:55;;;;;;;0.80;0.70;;;21.60;77.20;;;;;;4977208;28;20520;-71
2022/05/23 17:17:23;;;;;;;0.90;0.70;;;21.50;77.70;;;;;;4977593;28;20481;-70